Terminal Aerodrome Forecast
Issued by NWS

Home | Current Version | Previous Version | Text Only | Print | Product List | Glossary Off
Versions: 1 2 3 4 5 6 7 8 9 10 11 12 13 14 15 16 17

000
FTUS43 KABR 261720
TAFPIR
TAF
KPIR 261720Z 2618/2718 30016KT P6SM FEW250
     FM270100 30007KT P6SM SCT200
     FM271000 29006KT P6SM VCSH BKN080=

USA.gov is the U.S. government's official web portal to all federal, state and local government web resources and services.